ETH362 HAAB-HDAM
Flight info
| Callsign | ETH362 |
|---|---|
| Flight time | 1h 30m |
| Altitude | 33000 |
| Route | ASOLE2A ASOLE LAKBE |
| Aircraft | B738/M-V/N |
Departure
| Time | 2026-04-23 17:10 |
|---|---|
| Airport | Addis Ababa Bole International Airport (HAAB) |
Arrival
| Time | 2026-04-23 18:40 |
|---|---|
| Airport | Djibouti-Ambouli Airport (HDAM) |
| Time | Latitude | Longitude | Altitude | Speed | Heading |
|---|---|---|---|---|---|
| 2026-04-23 17:05 | 8.97225 | 38.78315 | 7327 ft | 0 kts | 73° |
| 2026-04-23 17:08 | 8.97237 | 38.78357 | 7327 ft | 25 kts | 73° |
| 2026-04-23 17:09 | 8.97341 | 38.78711 | 7327 ft | 79 kts | 73° |
| 2026-04-23 17:09 | 8.97543 | 38.79403 | 7327 ft | 125 kts | 73° |
| 2026-04-23 17:09 | 8.97832 | 38.80391 | 7327 ft | 166 kts | 73° |
| 2026-04-23 17:09 | 8.98183 | 38.81592 | 7519 ft | 186 kts | 73° |
| 2026-04-23 17:10 | 8.98553 | 38.82879 | 7978 ft | 197 kts | 74° |
| 2026-04-23 17:10 | 8.98928 | 38.84230 | 8531 ft | 201 kts | 74° |
| 2026-04-23 17:10 | 8.99276 | 38.85578 | 9211 ft | 197 kts | 79° |
| 2026-04-23 17:10 | 8.99459 | 38.86991 | 9481 ft | 211 kts | 84° |
| 2026-04-23 17:11 | 8.99623 | 38.88530 | 9684 ft | 228 kts | 83° |
| 2026-04-23 17:11 | 8.99852 | 38.90183 | 9880 ft | 246 kts | 81° |
| 2026-04-23 17:11 | 9.00123 | 38.91937 | 10175 ft | 258 kts | 81° |
| 2026-04-23 17:11 | 9.00417 | 38.93771 | 10442 ft | 272 kts | 83° |
| 2026-04-23 17:12 | 9.00738 | 38.95712 | 10718 ft | 285 kts | 82° |
| 2026-04-23 17:12 | 9.01074 | 38.97713 | 11089 ft | 293 kts | 79° |
| 2026-04-23 17:12 | 9.01423 | 38.99749 | 11637 ft | 294 kts | 79° |
| 2026-04-23 17:12 | 9.01775 | 39.01792 | 12155 ft | 296 kts | 79° |
| 2026-04-23 17:13 | 9.02135 | 39.03857 | 12478 ft | 300 kts | 79° |
| 2026-04-23 17:13 | 9.02498 | 39.05938 | 12501 ft | 301 kts | 79° |
| 2026-04-23 17:13 | 9.02863 | 39.08015 | 12503 ft | 299 kts | 79° |
| 2026-04-23 17:13 | 9.03225 | 39.10081 | 12504 ft | 298 kts | 79° |
| 2026-04-23 17:14 | 9.03630 | 39.12136 | 12685 ft | 299 kts | 75° |
| 2026-04-23 17:14 | 9.04199 | 39.14165 | 13168 ft | 300 kts | 71° |
| 2026-04-23 17:14 | 9.04839 | 39.16178 | 13667 ft | 302 kts | 70° |
| 2026-04-23 17:14 | 9.05476 | 39.18211 | 14143 ft | 304 kts | 71° |
| 2026-04-23 17:15 | 9.06102 | 39.20260 | 14610 ft | 306 kts | 71° |
| 2026-04-23 17:15 | 9.06622 | 39.21972 | 14990 ft | 308 kts | 71° |
| 2026-04-23 17:15 | 8.97225 | 38.78315 | 7327 ft | 0 kts | 73° |
| 2026-04-23 17:41 | 8.97225 | 38.78316 | 7327 ft | 0 kts | 73° |
| 2026-04-23 17:41 | 8.97269 | 38.78465 | 7327 ft | 50 kts | 73° |
| 2026-04-23 17:42 | 8.97662 | 38.79821 | 7327 ft | 146 kts | 73° |
| 2026-04-23 17:42 | 8.97978 | 38.80921 | 7379 ft | 179 kts | 74° |
| 2026-04-23 17:42 | 8.98279 | 38.82172 | 7823 ft | 189 kts | 79° |
| 2026-04-23 17:43 | 8.98530 | 38.83513 | 8414 ft | 190 kts | 78° |
| 2026-04-23 17:43 | 8.98774 | 38.84818 | 9002 ft | 194 kts | 80° |
| 2026-04-23 17:43 | 8.99021 | 38.86206 | 9276 ft | 209 kts | 80° |
| 2026-04-23 17:43 | 8.99287 | 38.87710 | 9477 ft | 227 kts | 80° |
| 2026-04-23 17:44 | 8.99577 | 38.89350 | 9686 ft | 246 kts | 80° |
| 2026-04-23 17:44 | 8.99888 | 38.91110 | 9925 ft | 262 kts | 79° |
| 2026-04-23 17:44 | 9.00542 | 38.94821 | 10712 ft | 282 kts | 82° |
| 2026-04-23 17:45 | 9.00892 | 38.96811 | 11053 ft | 293 kts | 79° |
| 2026-04-23 17:45 | 9.01622 | 39.00964 | 11870 ft | 314 kts | 79° |
| 2026-04-23 17:45 | 9.02017 | 39.03207 | 12117 ft | 333 kts | 79° |
| 2026-04-23 17:46 | 9.02870 | 39.08060 | 12508 ft | 369 kts | 79° |
| 2026-04-23 17:46 | 9.03328 | 39.10658 | 12511 ft | 379 kts | 79° |
| 2026-04-23 17:46 | 9.03948 | 39.13285 | 12819 ft | 386 kts | 73° |
| 2026-04-23 17:47 | 9.04747 | 39.15872 | 13541 ft | 386 kts | 71° |
| 2026-04-23 17:47 | 9.05562 | 39.18480 | 14148 ft | 390 kts | 72° |
| 2026-04-23 17:47 | 9.07538 | 39.23613 | 15307 ft | 395 kts | 57° |
| 2026-04-23 17:48 | 9.09221 | 39.25802 | 15870 ft | 395 kts | 44° |
| 2026-04-23 17:48 | 9.11208 | 39.27678 | 16418 ft | 396 kts | 38° |
| 2026-04-23 17:48 | 9.11598 | 39.28018 | 16520 ft | 397 kts | 38° |
| 2026-04-23 17:48 | 9.13721 | 39.29814 | 17060 ft | 400 kts | 36° |
| 2026-04-23 17:49 | 9.15886 | 39.31602 | 17591 ft | 403 kts | 37° |
| 2026-04-23 17:49 | 9.18058 | 39.33404 | 18110 ft | 406 kts | 37° |
| 2026-04-23 17:49 | 9.20244 | 39.35229 | 18617 ft | 409 kts | 37° |
| 2026-04-23 17:49 | 9.22446 | 39.37073 | 19115 ft | 412 kts | 37° |
| 2026-04-23 17:50 | 9.24663 | 39.38936 | 19605 ft | 415 kts | 37° |
| 2026-04-23 17:50 | 9.29134 | 39.42700 | 20549 ft | 421 kts | 37° |
| 2026-04-23 17:50 | 9.31389 | 39.44603 | 21004 ft | 424 kts | 37° |
| 2026-04-23 17:51 | 9.33666 | 39.46524 | 21451 ft | 427 kts | 37° |
| 2026-04-23 17:51 | 9.35950 | 39.48452 | 21885 ft | 429 kts | 37° |
| 2026-04-23 17:51 | 9.40440 | 39.52510 | 22721 ft | 437 kts | 44° |
| 2026-04-23 17:52 | 9.42427 | 39.54851 | 23120 ft | 441 kts | 50° |
| 2026-04-23 17:52 | 9.45870 | 39.60051 | 23897 ft | 448 kts | 56° |
| 2026-04-23 17:52 | 9.47532 | 39.62735 | 24272 ft | 450 kts | 56° |
| 2026-04-23 17:53 | 9.50891 | 39.68119 | 24991 ft | 455 kts | 56° |
| 2026-04-23 17:53 | 9.52592 | 39.70833 | 25338 ft | 457 kts | 56° |
| 2026-04-23 17:53 | 9.54302 | 39.73558 | 25675 ft | 459 kts | 56° |
| 2026-04-23 17:54 | 9.56021 | 39.76295 | 26003 ft | 462 kts | 56° |
| 2026-04-23 17:54 | 9.57744 | 39.79038 | 26323 ft | 464 kts | 56° |
| 2026-04-23 17:54 | 9.61225 | 39.84575 | 26939 ft | 468 kts | 56° |
| 2026-04-23 17:55 | 9.65090 | 39.89891 | 27522 ft | 470 kts | 47° |
| 2026-04-23 17:55 | 9.67220 | 39.92351 | 27798 ft | 471 kts | 46° |
| 2026-04-23 17:55 | 9.69396 | 39.94847 | 28070 ft | 473 kts | 46° |
| 2026-04-23 17:56 | 9.71579 | 39.97353 | 28338 ft | 475 kts | 46° |
| 2026-04-23 17:56 | 9.75965 | 40.02389 | 28916 ft | 477 kts | 46° |
| 2026-04-23 17:56 | 9.78153 | 40.04906 | 29274 ft | 476 kts | 46° |
| 2026-04-23 17:57 | 9.80345 | 40.07431 | 29622 ft | 475 kts | 46° |
| 2026-04-23 17:57 | 9.82526 | 40.09944 | 29961 ft | 475 kts | 46° |
| 2026-04-23 17:57 | 9.86880 | 40.14967 | 30617 ft | 473 kts | 46° |
| 2026-04-23 17:58 | 9.89052 | 40.17474 | 30934 ft | 473 kts | 46° |
| 2026-04-23 17:58 | 9.91219 | 40.19974 | 31248 ft | 472 kts | 46° |
| 2026-04-23 17:58 | 9.93334 | 40.22522 | 31552 ft | 472 kts | 50° |
| 2026-04-23 17:58 | 9.95218 | 40.25256 | 31850 ft | 473 kts | 56° |
| 2026-04-23 17:59 | 9.96922 | 40.28115 | 32145 ft | 473 kts | 58° |
| 2026-04-23 17:59 | 9.98566 | 40.31000 | 32436 ft | 473 kts | 58° |
| 2026-04-23 17:59 | 10.00212 | 40.33887 | 32720 ft | 472 kts | 58° |
| 2026-04-23 17:59 | 10.01858 | 40.36770 | 32981 ft | 472 kts | 58° |
| 2026-04-23 18:00 | 10.03512 | 40.39662 | 32986 ft | 474 kts | 58° |
| 2026-04-23 18:00 | 10.06823 | 40.45446 | 32996 ft | 473 kts | 58° |
| 2026-04-23 18:01 | 10.10112 | 40.51188 | 32997 ft | 470 kts | 58° |
| 2026-04-23 18:01 | 10.13405 | 40.56925 | 32997 ft | 471 kts | 58° |
| 2026-04-23 18:02 | 10.16145 | 40.61697 | 32997 ft | 471 kts | 58° |
| 2026-04-23 18:02 | 10.19994 | 40.68407 | 32997 ft | 471 kts | 58° |
| 2026-04-23 18:03 | 10.23286 | 40.74151 | 32997 ft | 471 kts | 58° |
| 2026-04-23 18:03 | 10.26576 | 40.79896 | 32997 ft | 471 kts | 58° |
| 2026-04-23 18:04 | 10.29866 | 40.85644 | 32997 ft | 471 kts | 58° |
| 2026-04-23 18:04 | 10.33130 | 40.91349 | 32997 ft | 471 kts | 58° |
| 2026-04-23 18:05 | 10.36437 | 40.97133 | 32997 ft | 471 kts | 58° |
| 2026-04-23 18:05 | 10.39700 | 41.02843 | 32997 ft | 470 kts | 58° |
| 2026-04-23 18:06 | 10.43008 | 41.08634 | 32997 ft | 470 kts | 58° |
| 2026-04-23 18:06 | 10.46270 | 41.14342 | 32997 ft | 470 kts | 58° |
| 2026-04-23 18:07 | 10.49554 | 41.20094 | 32997 ft | 470 kts | 58° |
| 2026-04-23 18:07 | 10.52833 | 41.25847 | 32997 ft | 470 kts | 58° |
| 2026-04-23 18:08 | 10.55577 | 41.30666 | 32997 ft | 470 kts | 58° |
| 2026-04-23 18:08 | 10.59376 | 41.37338 | 32996 ft | 466 kts | 58° |
| 2026-04-23 18:09 | 10.62599 | 41.43004 | 32996 ft | 461 kts | 58° |
| 2026-04-23 18:09 | 10.65798 | 41.48631 | 32995 ft | 455 kts | 58° |
| 2026-04-23 18:09 | 10.67359 | 41.51380 | 32990 ft | 441 kts | 58° |
| 2026-04-23 18:10 | 10.68867 | 41.54037 | 32985 ft | 427 kts | 58° |
| 2026-04-23 18:10 | 10.70331 | 41.56617 | 32980 ft | 414 kts | 58° |
| 2026-04-23 18:10 | 10.71751 | 41.59119 | 32980 ft | 405 kts | 58° |
| 2026-04-23 18:11 | 10.74565 | 41.64082 | 32360 ft | 409 kts | 58° |
| 2026-04-23 18:11 | 10.75989 | 41.66595 | 31788 ft | 413 kts | 58° |
| 2026-04-23 18:11 | 10.76943 | 41.68277 | 31408 ft | 415 kts | 58° |
| 2026-04-23 18:11 | 10.78391 | 41.70831 | 30835 ft | 419 kts | 58° |
| 2026-04-23 18:12 | 10.79856 | 41.73409 | 30260 ft | 423 kts | 58° |
| 2026-04-23 18:12 | 10.81829 | 41.76885 | 29492 ft | 427 kts | 58° |
| 2026-04-23 18:12 | 10.82815 | 41.78624 | 29110 ft | 429 kts | 58° |
| 2026-04-23 18:12 | 10.84307 | 41.81255 | 28536 ft | 431 kts | 58° |
| 2026-04-23 18:13 | 10.85808 | 41.83904 | 27960 ft | 433 kts | 58° |
| 2026-04-23 18:13 | 10.87801 | 41.87423 | 27198 ft | 435 kts | 58° |
| 2026-04-23 18:13 | 10.88826 | 41.89227 | 26809 ft | 436 kts | 58° |
| 2026-04-23 18:13 | 10.90829 | 41.92763 | 26048 ft | 437 kts | 58° |
| 2026-04-23 18:14 | 10.91850 | 41.94567 | 25659 ft | 432 kts | 58° |
| 2026-04-23 18:14 | 10.93334 | 41.97189 | 25081 ft | 426 kts | 58° |
| 2026-04-23 18:14 | 10.94811 | 41.99803 | 24506 ft | 427 kts | 58° |
| 2026-04-23 18:14 | 10.96292 | 42.02425 | 23932 ft | 428 kts | 58° |
| 2026-04-23 18:15 | 10.97758 | 42.05022 | 23364 ft | 429 kts | 58° |
| 2026-04-23 18:15 | 10.99246 | 42.07657 | 22789 ft | 429 kts | 58° |
| 2026-04-23 18:15 | 11.00733 | 42.10293 | 22213 ft | 429 kts | 58° |
| 2026-04-23 18:15 | 11.02240 | 42.12962 | 21660 ft | 429 kts | 58° |
| 2026-04-23 18:16 | 11.03720 | 42.15584 | 21187 ft | 426 kts | 58° |
| 2026-04-23 18:16 | 11.05152 | 42.18169 | 20718 ft | 424 kts | 59° |
| 2026-04-23 18:16 | 11.06597 | 42.20812 | 20237 ft | 421 kts | 59° |
| 2026-04-23 18:17 | 11.09428 | 42.25994 | 19284 ft | 416 kts | 59° |
| 2026-04-23 18:17 | 11.10831 | 42.28561 | 18809 ft | 414 kts | 59° |
| 2026-04-23 18:17 | 11.12225 | 42.31113 | 18333 ft | 411 kts | 59° |
| 2026-04-23 18:17 | 11.13610 | 42.33651 | 17858 ft | 409 kts | 59° |
| 2026-04-23 18:18 | 11.14970 | 42.36142 | 17389 ft | 407 kts | 59° |
| 2026-04-23 18:18 | 11.16359 | 42.38687 | 16947 ft | 404 kts | 59° |
| 2026-04-23 18:18 | 11.17699 | 42.41142 | 16574 ft | 399 kts | 59° |
| 2026-04-23 18:18 | 11.19041 | 42.43599 | 16197 ft | 395 kts | 59° |
| 2026-04-23 18:19 | 11.20374 | 42.46028 | 15822 ft | 391 kts | 59° |
| 2026-04-23 18:19 | 11.21691 | 42.48435 | 15446 ft | 387 kts | 59° |
| 2026-04-23 18:19 | 11.22996 | 42.50822 | 15069 ft | 384 kts | 59° |
| 2026-04-23 18:19 | 11.24288 | 42.53188 | 14693 ft | 380 kts | 59° |
| 2026-04-23 18:20 | 11.25568 | 42.55534 | 14318 ft | 377 kts | 59° |
| 2026-04-23 18:20 | 11.26837 | 42.57860 | 13943 ft | 375 kts | 59° |
| 2026-04-23 18:20 | 11.28097 | 42.60171 | 13566 ft | 372 kts | 59° |
| 2026-04-23 18:20 | 11.29349 | 42.62468 | 13191 ft | 369 kts | 59° |
| 2026-04-23 18:21 | 11.30592 | 42.64750 | 12815 ft | 367 kts | 59° |
| 2026-04-23 18:21 | 11.31825 | 42.67014 | 12440 ft | 365 kts | 59° |
| 2026-04-23 18:21 | 11.33054 | 42.69270 | 12063 ft | 363 kts | 59° |
| 2026-04-23 18:21 | 11.34272 | 42.71509 | 11688 ft | 361 kts | 59° |
| 2026-04-23 18:22 | 11.35485 | 42.73737 | 11313 ft | 359 kts | 59° |
| 2026-04-23 18:22 | 11.36691 | 42.75954 | 10937 ft | 357 kts | 59° |
| 2026-04-23 18:22 | 11.37890 | 42.78158 | 10562 ft | 355 kts | 59° |
| 2026-04-23 18:22 | 11.39088 | 42.80355 | 10186 ft | 353 kts | 59° |
| 2026-04-23 18:23 | 11.40028 | 42.82655 | 9794 ft | 354 kts | 78° |
| 2026-04-23 18:23 | 11.38924 | 42.87330 | 9043 ft | 345 kts | 131° |
| 2026-04-23 18:24 | 11.34855 | 42.89258 | 8292 ft | 323 kts | 186° |
| 2026-04-23 18:24 | 11.32753 | 42.88646 | 7916 ft | 312 kts | 213° |
| 2026-04-23 18:24 | 11.31157 | 42.87209 | 7550 ft | 305 kts | 232° |
| 2026-04-23 18:25 | 11.28866 | 42.83620 | 6795 ft | 301 kts | 246° |
| 2026-04-23 18:25 | 11.28476 | 42.81565 | 6409 ft | 297 kts | 274° |
| 2026-04-23 18:25 | 11.29138 | 42.79594 | 6033 ft | 297 kts | 303° |
| 2026-04-23 18:25 | 11.30679 | 42.78216 | 5657 ft | 300 kts | 332° |
| 2026-04-23 18:26 | 11.32708 | 42.77755 | 5287 ft | 303 kts | 358° |
| 2026-04-23 18:26 | 11.34794 | 42.78047 | 4917 ft | 304 kts | 13° |
| 2026-04-23 18:26 | 11.36761 | 42.78839 | 4531 ft | 306 kts | 30° |
| 2026-04-23 18:26 | 11.38354 | 42.80265 | 4163 ft | 306 kts | 47° |
| 2026-04-23 18:27 | 11.39562 | 42.82034 | 3877 ft | 303 kts | 59° |
| 2026-04-23 18:27 | 11.40594 | 42.83885 | 3723 ft | 295 kts | 59° |
| 2026-04-23 18:27 | 11.41592 | 42.85653 | 3693 ft | 282 kts | 59° |
| 2026-04-23 18:27 | 11.42543 | 42.87345 | 3685 ft | 268 kts | 59° |
| 2026-04-23 18:28 | 11.43435 | 42.88935 | 3678 ft | 255 kts | 59° |
| 2026-04-23 18:28 | 11.44316 | 42.90507 | 3682 ft | 250 kts | 59° |
| 2026-04-23 18:28 | 11.45161 | 42.92015 | 3689 ft | 248 kts | 59° |
| 2026-04-23 18:28 | 11.46018 | 42.93545 | 3697 ft | 249 kts | 60° |
| 2026-04-23 18:29 | 11.46883 | 42.95092 | 3703 ft | 252 kts | 60° |
| 2026-04-23 18:29 | 11.47752 | 42.96645 | 3703 ft | 252 kts | 60° |
| 2026-04-23 18:29 | 11.48619 | 42.98196 | 3703 ft | 252 kts | 60° |
| 2026-04-23 18:29 | 11.49490 | 42.99755 | 3703 ft | 252 kts | 60° |
| 2026-04-23 18:30 | 11.50358 | 43.01308 | 3703 ft | 252 kts | 60° |
| 2026-04-23 18:30 | 11.51226 | 43.02862 | 3703 ft | 252 kts | 60° |
| 2026-04-23 18:30 | 11.52094 | 43.04415 | 3703 ft | 252 kts | 60° |
| 2026-04-23 18:30 | 11.52963 | 43.05969 | 3703 ft | 252 kts | 60° |
| 2026-04-23 18:31 | 11.53828 | 43.07518 | 3702 ft | 249 kts | 60° |
| 2026-04-23 18:31 | 11.54668 | 43.09048 | 3699 ft | 246 kts | 62° |
| 2026-04-23 18:31 | 11.55310 | 43.10656 | 3699 ft | 243 kts | 71° |
| 2026-04-23 18:31 | 11.55786 | 43.12288 | 3723 ft | 234 kts | 73° |
| 2026-04-23 18:32 | 11.56225 | 43.13833 | 3707 ft | 220 kts | 72° |
| 2026-04-23 18:32 | 11.56652 | 43.15299 | 3684 ft | 212 kts | 72° |
| 2026-04-23 18:32 | 11.57067 | 43.16720 | 3680 ft | 207 kts | 73° |
| 2026-04-23 18:32 | 11.57482 | 43.18111 | 3623 ft | 203 kts | 72° |
| 2026-04-23 18:33 | 11.57894 | 43.19473 | 3545 ft | 197 kts | 72° |
| 2026-04-23 18:33 | 11.58292 | 43.20794 | 3300 ft | 193 kts | 73° |
| 2026-04-23 18:33 | 11.58684 | 43.22093 | 2999 ft | 190 kts | 73° |
| 2026-04-23 18:33 | 11.59070 | 43.23372 | 2697 ft | 187 kts | 73° |
| 2026-04-23 18:34 | 11.59450 | 43.24633 | 2395 ft | 185 kts | 73° |
| 2026-04-23 18:34 | 11.59826 | 43.25881 | 2093 ft | 183 kts | 73° |
| 2026-04-23 18:34 | 11.60198 | 43.27112 | 1792 ft | 181 kts | 73° |
| 2026-04-23 18:34 | 11.60563 | 43.28324 | 1614 ft | 176 kts | 73° |
| 2026-04-23 18:35 | 11.60920 | 43.29511 | 1604 ft | 175 kts | 73° |
| 2026-04-23 18:35 | 11.61128 | 43.30736 | 1555 ft | 179 kts | 97° |
| 2026-04-23 18:35 | 11.60478 | 43.31774 | 1533 ft | 179 kts | 147° |
| 2026-04-23 18:35 | 11.59298 | 43.32169 | 1638 ft | 180 kts | 167° |
| 2026-04-23 18:36 | 11.58069 | 43.32459 | 1650 ft | 182 kts | 167° |
| 2026-04-23 18:36 | 11.56851 | 43.32715 | 1603 ft | 177 kts | 176° |
| 2026-04-23 18:36 | 11.55748 | 43.32273 | 1510 ft | 173 kts | 224° |
| 2026-04-23 18:36 | 11.55128 | 43.31254 | 1577 ft | 169 kts | 248° |
| 2026-04-23 18:37 | 11.54828 | 43.30100 | 1608 ft | 169 kts | 261° |
| 2026-04-23 18:37 | 11.54707 | 43.28911 | 1614 ft | 169 kts | 265° |
| 2026-04-23 18:37 | 11.54618 | 43.27716 | 1608 ft | 169 kts | 267° |
| 2026-04-23 18:37 | 11.54597 | 43.26546 | 1543 ft | 162 kts | 270° |
| 2026-04-23 18:38 | 11.54604 | 43.25411 | 1361 ft | 158 kts | 270° |
| 2026-04-23 18:38 | 11.54617 | 43.24301 | 1186 ft | 155 kts | 271° |
| 2026-04-23 18:38 | 11.54632 | 43.23213 | 1018 ft | 152 kts | 271° |
| 2026-04-23 18:38 | 11.54646 | 43.22145 | 856 ft | 150 kts | 271° |
| 2026-04-23 18:39 | 11.54661 | 43.21082 | 691 ft | 150 kts | 271° |
| 2026-04-23 18:39 | 11.54676 | 43.20017 | 527 ft | 151 kts | 271° |
| 2026-04-23 18:39 | 11.54691 | 43.18949 | 362 ft | 151 kts | 271° |
| 2026-04-23 18:39 | 11.54706 | 43.17878 | 194 ft | 151 kts | 271° |
| 2026-04-23 18:40 | 11.54721 | 43.16814 | 66 ft | 148 kts | 271° |
| 2026-04-23 18:40 | 11.54734 | 43.15871 | 57 ft | 101 kts | 271° |
| 2026-04-23 18:40 | 11.54741 | 43.15435 | 57 ft | 23 kts | 271° |
| 2026-04-23 18:40 | 11.54743 | 43.15264 | 57 ft | 24 kts | 269° |
| 2026-04-23 18:41 | 11.54743 | 43.15155 | 57 ft | 10 kts | 270° |
| 2026-04-23 18:41 | 11.54783 | 43.15109 | 57 ft | 10 kts | 350° |
| 2026-04-23 18:41 | 11.54857 | 43.15105 | 57 ft | 11 kts | 358° |
| 2026-04-23 18:41 | 11.54940 | 43.15107 | 57 ft | 13 kts | 2° |
| 2026-04-23 18:42 | 11.55021 | 43.15106 | 57 ft | 9 kts | 358° |
| 2026-04-23 18:42 | 11.55056 | 43.15092 | 57 ft | 3 kts | 300° |
| 2026-04-23 18:42 | 11.55063 | 43.15058 | 57 ft | 7 kts | 285° |
| 2026-04-23 18:42 | 11.55101 | 43.15039 | 57 ft | 5 kts | 357° |
| 2026-04-23 18:43 | 11.55116 | 43.15038 | 57 ft | 5 kts | 359° |
| 2026-04-23 18:43 | 11.55153 | 43.15038 | 57 ft | 1 kts | 1° |